Terminal Aerodrome Forecast
Issued by NWS

Home | Current Version | Previous Version | Text Only | Print | Product List | Glossary On
Versions: 1 2 3 4 5 6 7 8 9 10 11 12 13
000
FTUS43 KJKL 251127
TAFSJS
TAF
KSJS 251127Z 2512/2612 18007KT P6SM SCT250
     FM251700 20008G15KT P6SM VCTS BKN050CB
     FM252100 22009G17KT 5SM -TSRA SCT020 BKN040CB
     FM260100 22006KT P6SM VCTS BKN040CB=

USA.gov is the U.S. government's official web portal to all federal, state and local government web resources and services.